sensor_id;sensor_type;location;lat;lon;timestamp;P1;durP1;ratioP1;P2;durP2;ratioP2
29814;SDS011;16708;50.426;7.664;2022-12-18T00:01:03;46.30;;;14.00;;
29814;SDS011;16708;50.426;7.664;2022-12-18T00:05:53;41.40;;;13.40;;
29814;SDS011;16708;50.426;7.664;2022-12-18T00:10:46;40.80;;;13.50;;
29814;SDS011;16708;50.426;7.664;2022-12-18T00:15:38;39.10;;;12.60;;
29814;SDS011;16708;50.426;7.664;2022-12-18T00:20:33;38.20;;;13.00;;
29814;SDS011;16708;50.426;7.664;2022-12-18T00:25:27;37.10;;;12.30;;
29814;SDS011;16708;50.426;7.664;2022-12-18T00:30:21;39.40;;;11.50;;
29814;SDS011;16708;50.426;7.664;2022-12-18T00:35:15;35.20;;;12.00;;
29814;SDS011;16708;50.426;7.664;2022-12-18T00:40:09;29.40;;;10.30;;
29814;SDS011;16708;50.426;7.664;2022-12-18T00:45:01;33.90;;;11.00;;
29814;SDS011;16708;50.426;7.664;2022-12-18T00:49:56;35.40;;;10.80;;
29814;SDS011;16708;50.426;7.664;2022-12-18T00:54:50;30.60;;;10.60;;
29814;SDS011;16708;50.426;7.664;2022-12-18T00:59:44;36.30;;;11.50;;
29814;SDS011;16708;50.426;7.664;2022-12-18T01:04:38;31.30;;;10.20;;
29814;SDS011;16708;50.426;7.664;2022-12-18T01:09:32;35.60;;;10.20;;
29814;SDS011;16708;50.426;7.664;2022-12-18T01:14:27;34.90;;;9.80;;
29814;SDS011;16708;50.426;7.664;2022-12-18T01:19:21;37.90;;;10.90;;
29814;SDS011;16708;50.426;7.664;2022-12-18T01:24:13;34.40;;;11.20;;
29814;SDS011;16708;50.426;7.664;2022-12-18T01:29:08;34.20;;;10.40;;
29814;SDS011;16708;50.426;7.664;2022-12-18T01:34:02;42.80;;;10.00;;
29814;SDS011;16708;50.426;7.664;2022-12-18T01:38:56;34.40;;;10.80;;
29814;SDS011;16708;50.426;7.664;2022-12-18T01:43:51;36.90;;;10.90;;
29814;SDS011;16708;50.426;7.664;2022-12-18T01:48:44;38.70;;;9.80;;
29814;SDS011;16708;50.426;7.664;2022-12-18T01:53:38;28.60;;;9.90;;
29814;SDS011;16708;50.426;7.664;2022-12-18T01:58:33;37.00;;;10.40;;
29814;SDS011;16708;50.426;7.664;2022-12-18T02:03:27;31.90;;;9.70;;
29814;SDS011;16708;50.426;7.664;2022-12-18T02:08:21;33.50;;;10.30;;
29814;SDS011;16708;50.426;7.664;2022-12-18T02:13:15;36.00;;;10.20;;
29814;SDS011;16708;50.426;7.664;2022-12-18T02:18:09;28.80;;;9.30;;
29814;SDS011;16708;50.426;7.664;2022-12-18T02:27:58;34.50;;;9.70;;
29814;SDS011;16708;50.426;7.664;2022-12-18T02:32:52;35.50;;;9.70;;
29814;SDS011;16708;50.426;7.664;2022-12-18T02:37:46;32.50;;;10.00;;
29814;SDS011;16708;50.426;7.664;2022-12-18T02:42:38;32.50;;;10.00;;
29814;SDS011;16708;50.426;7.664;2022-12-18T02:47:32;41.30;;;12.20;;
29814;SDS011;16708;50.426;7.664;2022-12-18T02:57:21;39.80;;;11.70;;
29814;SDS011;16708;50.426;7.664;2022-12-18T03:02:15;45.40;;;12.60;;
29814;SDS011;16708;50.426;7.664;2022-12-18T03:07:09;42.60;;;10.80;;
29814;SDS011;16708;50.426;7.664;2022-12-18T03:12:03;42.90;;;12.40;;
29814;SDS011;16708;50.426;7.664;2022-12-18T03:16:57;41.90;;;12.50;;
29814;SDS011;16708;50.426;7.664;2022-12-18T03:21:51;42.00;;;13.10;;
29814;SDS011;16708;50.426;7.664;2022-12-18T03:26:43;51.00;;;14.10;;
29814;SDS011;16708;50.426;7.664;2022-12-18T03:31:37;49.00;;;13.50;;
29814;SDS011;16708;50.426;7.664;2022-12-18T03:36:29;47.70;;;13.60;;
29814;SDS011;16708;50.426;7.664;2022-12-18T03:41:24;49.20;;;13.70;;
29814;SDS011;16708;50.426;7.664;2022-12-18T03:46:18;46.60;;;13.30;;
29814;SDS011;16708;50.426;7.664;2022-12-18T03:51:10;47.40;;;12.80;;
29814;SDS011;16708;50.426;7.664;2022-12-18T03:56:04;39.40;;;11.70;;
29814;SDS011;16708;50.426;7.664;2022-12-18T04:00:58;55.30;;;13.70;;
29814;SDS011;16708;50.426;7.664;2022-12-18T04:05:53;53.70;;;14.30;;
29814;SDS011;16708;50.426;7.664;2022-12-18T04:10:45;49.90;;;14.00;;
29814;SDS011;16708;50.426;7.664;2022-12-18T04:15:39;47.20;;;13.80;;
29814;SDS011;16708;50.426;7.664;2022-12-18T04:20:33;51.50;;;14.50;;
29814;SDS011;16708;50.426;7.664;2022-12-18T04:25:28;58.00;;;15.20;;
29814;SDS011;16708;50.426;7.664;2022-12-18T04:30:22;54.30;;;14.40;;
29814;SDS011;16708;50.426;7.664;2022-12-18T04:35:15;49.40;;;13.10;;
29814;SDS011;16708;50.426;7.664;2022-12-18T04:40:08;45.50;;;13.90;;
29814;SDS011;16708;50.426;7.664;2022-12-18T04:45:03;56.50;;;14.70;;
29814;SDS011;16708;50.426;7.664;2022-12-18T04:49:57;46.20;;;13.80;;
29814;SDS011;16708;50.426;7.664;2022-12-18T04:54:51;49.50;;;14.50;;
29814;SDS011;16708;50.426;7.664;2022-12-18T04:59:45;42.20;;;11.90;;
29814;SDS011;16708;50.426;7.664;2022-12-18T05:04:37;42.40;;;12.00;;
29814;SDS011;16708;50.426;7.664;2022-12-18T05:09:31;47.00;;;12.60;;
29814;SDS011;16708;50.426;7.664;2022-12-18T05:14:26;46.60;;;13.10;;
29814;SDS011;16708;50.426;7.664;2022-12-18T05:19:20;41.60;;;12.60;;
29814;SDS011;16708;50.426;7.664;2022-12-18T05:24:14;46.50;;;12.50;;
29814;SDS011;16708;50.426;7.664;2022-12-18T05:29:12;53.90;;;14.40;;
29814;SDS011;16708;50.426;7.664;2022-12-18T05:34:02;43.30;;;12.90;;
29814;SDS011;16708;50.426;7.664;2022-12-18T05:38:57;41.70;;;13.50;;
29814;SDS011;16708;50.426;7.664;2022-12-18T05:43:51;45.60;;;13.40;;
29814;SDS011;16708;50.426;7.664;2022-12-18T05:48:45;49.70;;;13.60;;
29814;SDS011;16708;50.426;7.664;2022-12-18T05:53:41;49.70;;;14.80;;
29814;SDS011;16708;50.426;7.664;2022-12-18T05:58:32;48.20;;;13.40;;
29814;SDS011;16708;50.426;7.664;2022-12-18T06:03:27;44.00;;;14.10;;
29814;SDS011;16708;50.426;7.664;2022-12-18T06:08:19;47.10;;;13.10;;
29814;SDS011;16708;50.426;7.664;2022-12-18T06:13:13;51.30;;;15.00;;
29814;SDS011;16708;50.426;7.664;2022-12-18T06:18:05;50.10;;;15.10;;
29814;SDS011;16708;50.426;7.664;2022-12-18T06:22:59;46.70;;;14.30;;
29814;SDS011;16708;50.426;7.664;2022-12-18T06:27:54;49.00;;;15.40;;
29814;SDS011;16708;50.426;7.664;2022-12-18T06:32:47;51.40;;;14.00;;
29814;SDS011;16708;50.426;7.664;2022-12-18T06:37:39;46.10;;;12.60;;
29814;SDS011;16708;50.426;7.664;2022-12-18T06:42:34;42.40;;;13.60;;
29814;SDS011;16708;50.426;7.664;2022-12-18T06:47:28;46.00;;;14.00;;
29814;SDS011;16708;50.426;7.664;2022-12-18T06:52:22;45.10;;;14.50;;
29814;SDS011;16708;50.426;7.664;2022-12-18T06:57:17;48.10;;;14.50;;
29814;SDS011;16708;50.426;7.664;2022-12-18T07:02:10;40.30;;;13.30;;
29814;SDS011;16708;50.426;7.664;2022-12-18T07:07:04;51.50;;;14.10;;
29814;SDS011;16708;50.426;7.664;2022-12-18T07:11:59;42.10;;;13.20;;
29814;SDS011;16708;50.426;7.664;2022-12-18T07:16:51;43.90;;;12.60;;
29814;SDS011;16708;50.426;7.664;2022-12-18T07:21:45;67.00;;;17.30;;
29814;SDS011;16708;50.426;7.664;2022-12-18T07:26:39;48.20;;;13.80;;
29814;SDS011;16708;50.426;7.664;2022-12-18T07:31:33;53.50;;;14.50;;
29814;SDS011;16708;50.426;7.664;2022-12-18T07:36:27;44.30;;;13.20;;
29814;SDS011;16708;50.426;7.664;2022-12-18T07:41:21;46.70;;;14.20;;
29814;SDS011;16708;50.426;7.664;2022-12-18T07:46:18;55.00;;;13.90;;
29814;SDS011;16708;50.426;7.664;2022-12-18T07:51:08;56.70;;;15.60;;
29814;SDS011;16708;50.426;7.664;2022-12-18T07:56:00;43.90;;;13.40;;
29814;SDS011;16708;50.426;7.664;2022-12-18T08:00:55;47.00;;;14.50;;
29814;SDS011;16708;50.426;7.664;2022-12-18T08:05:49;53.30;;;15.90;;
29814;SDS011;16708;50.426;7.664;2022-12-18T08:10:43;54.00;;;15.10;;
29814;SDS011;16708;50.426;7.664;2022-12-18T08:15:38;46.30;;;14.20;;
29814;SDS011;16708;50.426;7.664;2022-12-18T08:20:32;50.90;;;14.60;;
29814;SDS011;16708;50.426;7.664;2022-12-18T08:25:27;50.40;;;15.90;;
29814;SDS011;16708;50.426;7.664;2022-12-18T08:30:21;59.30;;;17.40;;
29814;SDS011;16708;50.426;7.664;2022-12-18T08:35:16;60.40;;;18.50;;
29814;SDS011;16708;50.426;7.664;2022-12-18T08:40:10;51.60;;;14.40;;
29814;SDS011;16708;50.426;7.664;2022-12-18T08:45:04;48.60;;;14.90;;
29814;SDS011;16708;50.426;7.664;2022-12-18T08:49:58;47.30;;;15.10;;
29814;SDS011;16708;50.426;7.664;2022-12-18T08:54:51;45.70;;;14.20;;
29814;SDS011;16708;50.426;7.664;2022-12-18T08:59:46;50.20;;;15.10;;
29814;SDS011;16708;50.426;7.664;2022-12-18T09:04:41;49.40;;;15.40;;
29814;SDS011;16708;50.426;7.664;2022-12-18T09:09:36;45.30;;;17.00;;
29814;SDS011;16708;50.426;7.664;2022-12-18T09:14:32;46.70;;;16.30;;
29814;SDS011;16708;50.426;7.664;2022-12-18T09:19:27;45.20;;;16.00;;
29814;SDS011;16708;50.426;7.664;2022-12-18T09:24:22;40.80;;;15.50;;
29814;SDS011;16708;50.426;7.664;2022-12-18T09:29:17;36.40;;;14.40;;
29814;SDS011;16708;50.426;7.664;2022-12-18T09:34:12;30.60;;;10.80;;
29814;SDS011;16708;50.426;7.664;2022-12-18T09:39:05;52.30;;;21.60;;
29814;SDS011;16708;50.426;7.664;2022-12-18T09:43:58;29.10;;;11.80;;
29814;SDS011;16708;50.426;7.664;2022-12-18T09:48:53;34.60;;;12.40;;
29814;SDS011;16708;50.426;7.664;2022-12-18T09:53:48;21.40;;;9.00;;
29814;SDS011;16708;50.426;7.664;2022-12-18T09:58:42;27.00;;;10.90;;
29814;SDS011;16708;50.426;7.664;2022-12-18T10:03:34;52.50;;;16.40;;
29814;SDS011;16708;50.426;7.664;2022-12-18T10:08:29;27.60;;;11.80;;
29814;SDS011;16708;50.426;7.664;2022-12-18T10:13:23;24.00;;;10.40;;
29814;SDS011;16708;50.426;7.664;2022-12-18T10:18:17;23.60;;;10.00;;
29814;SDS011;16708;50.426;7.664;2022-12-18T10:23:11;21.80;;;9.80;;
29814;SDS011;16708;50.426;7.664;2022-12-18T10:32:59;21.60;;;9.50;;
29814;SDS011;16708;50.426;7.664;2022-12-18T10:42:46;21.00;;;10.00;;
29814;SDS011;16708;50.426;7.664;2022-12-18T10:47:41;60.90;;;17.10;;
29814;SDS011;16708;50.426;7.664;2022-12-18T10:52:36;33.30;;;12.00;;
29814;SDS011;16708;50.426;7.664;2022-12-18T11:02:25;31.60;;;13.40;;
29814;SDS011;16708;50.426;7.664;2022-12-18T11:07:19;38.00;;;14.60;;
29814;SDS011;16708;50.426;7.664;2022-12-18T11:17:06;24.70;;;11.20;;
29814;SDS011;16708;50.426;7.664;2022-12-18T11:31:50;28.10;;;11.80;;
29814;SDS011;16708;50.426;7.664;2022-12-18T11:36:44;56.90;;;17.80;;
29814;SDS011;16708;50.426;7.664;2022-12-18T11:41:38;43.90;;;15.70;;
29814;SDS011;16708;50.426;7.664;2022-12-18T11:46:32;38.70;;;14.60;;
29814;SDS011;16708;50.426;7.664;2022-12-18T11:51:26;54.40;;;18.70;;
29814;SDS011;16708;50.426;7.664;2022-12-18T11:56:18;36.90;;;14.50;;
29814;SDS011;16708;50.426;7.664;2022-12-18T12:06:05;27.30;;;12.50;;
29814;SDS011;16708;50.426;7.664;2022-12-18T12:10:59;27.80;;;12.60;;
29814;SDS011;16708;50.426;7.664;2022-12-18T12:15:53;35.50;;;13.80;;
29814;SDS011;16708;50.426;7.664;2022-12-18T12:25:41;32.40;;;13.20;;
29814;SDS011;16708;50.426;7.664;2022-12-18T12:30:35;29.80;;;12.20;;
29814;SDS011;16708;50.426;7.664;2022-12-18T12:35:29;30.60;;;12.60;;
29814;SDS011;16708;50.426;7.664;2022-12-18T12:40:23;32.00;;;13.30;;
29814;SDS011;16708;50.426;7.664;2022-12-18T12:45:13;30.60;;;13.50;;
29814;SDS011;16708;50.426;7.664;2022-12-18T12:50:06;29.50;;;13.20;;
29814;SDS011;16708;50.426;7.664;2022-12-18T12:55:01;31.00;;;13.70;;
29814;SDS011;16708;50.426;7.664;2022-12-18T12:59:55;30.40;;;13.60;;
29814;SDS011;16708;50.426;7.664;2022-12-18T13:04:49;33.40;;;14.40;;
29814;SDS011;16708;50.426;7.664;2022-12-18T13:19:27;29.40;;;13.40;;
29814;SDS011;16708;50.426;7.664;2022-12-18T13:24:21;30.90;;;13.40;;
29814;SDS011;16708;50.426;7.664;2022-12-18T13:29:15;30.00;;;13.00;;
29814;SDS011;16708;50.426;7.664;2022-12-18T13:39:04;30.30;;;12.60;;
29814;SDS011;16708;50.426;7.664;2022-12-18T13:43:58;34.20;;;13.60;;
29814;SDS011;16708;50.426;7.664;2022-12-18T13:48:52;32.30;;;13.10;;
29814;SDS011;16708;50.426;7.664;2022-12-18T13:53:44;36.80;;;14.30;;
29814;SDS011;16708;50.426;7.664;2022-12-18T14:03:33;36.90;;;14.90;;
29814;SDS011;16708;50.426;7.664;2022-12-18T14:08:27;36.00;;;15.10;;
29814;SDS011;16708;50.426;7.664;2022-12-18T14:18:13;39.00;;;15.60;;
29814;SDS011;16708;50.426;7.664;2022-12-18T14:28:00;39.20;;;15.20;;
29814;SDS011;16708;50.426;7.664;2022-12-18T14:32:54;40.30;;;16.30;;
29814;SDS011;16708;50.426;7.664;2022-12-18T14:37:48;39.50;;;15.60;;
29814;SDS011;16708;50.426;7.664;2022-12-18T14:47:36;45.90;;;17.60;;
29814;SDS011;16708;50.426;7.664;2022-12-18T14:52:31;45.70;;;18.20;;
29814;SDS011;16708;50.426;7.664;2022-12-18T14:57:25;43.00;;;16.30;;
29814;SDS011;16708;50.426;7.664;2022-12-18T15:02:18;50.30;;;18.50;;
29814;SDS011;16708;50.426;7.664;2022-12-18T15:07:10;50.30;;;19.40;;
29814;SDS011;16708;50.426;7.664;2022-12-18T15:12:04;41.60;;;16.00;;
29814;SDS011;16708;50.426;7.664;2022-12-18T15:16:59;45.30;;;16.70;;
29814;SDS011;16708;50.426;7.664;2022-12-18T15:21:53;45.70;;;16.30;;
29814;SDS011;16708;50.426;7.664;2022-12-18T15:31:39;49.10;;;17.60;;
29814;SDS011;16708;50.426;7.664;2022-12-18T15:36:32;43.90;;;17.00;;
29814;SDS011;16708;50.426;7.664;2022-12-18T15:41:26;51.10;;;18.70;;
29814;SDS011;16708;50.426;7.664;2022-12-18T15:46:20;49.10;;;17.70;;
29814;SDS011;16708;50.426;7.664;2022-12-18T15:51:14;47.80;;;16.60;;
29814;SDS011;16708;50.426;7.664;2022-12-18T15:56:06;45.50;;;17.40;;
29814;SDS011;16708;50.426;7.664;2022-12-18T16:01:00;50.10;;;17.50;;
29814;SDS011;16708;50.426;7.664;2022-12-18T16:05:54;51.60;;;18.30;;
29814;SDS011;16708;50.426;7.664;2022-12-18T16:10:48;51.80;;;18.50;;
29814;SDS011;16708;50.426;7.664;2022-12-18T16:15:42;51.50;;;20.10;;
29814;SDS011;16708;50.426;7.664;2022-12-18T16:20:35;56.70;;;19.30;;
29814;SDS011;16708;50.426;7.664;2022-12-18T16:25:29;54.60;;;19.60;;
29814;SDS011;16708;50.426;7.664;2022-12-18T16:30:25;53.90;;;20.70;;
29814;SDS011;16708;50.426;7.664;2022-12-18T16:35:18;52.30;;;19.10;;
29814;SDS011;16708;50.426;7.664;2022-12-18T16:40:12;52.50;;;18.80;;
29814;SDS011;16708;50.426;7.664;2022-12-18T16:45:05;47.90;;;17.40;;
29814;SDS011;16708;50.426;7.664;2022-12-18T16:49:59;52.80;;;18.20;;
29814;SDS011;16708;50.426;7.664;2022-12-18T16:54:53;56.60;;;18.50;;
29814;SDS011;16708;50.426;7.664;2022-12-18T16:59:47;69.30;;;23.50;;
29814;SDS011;16708;50.426;7.664;2022-12-18T17:04:41;55.50;;;19.20;;
29814;SDS011;16708;50.426;7.664;2022-12-18T17:09:36;55.50;;;18.80;;
29814;SDS011;16708;50.426;7.664;2022-12-18T17:14:29;56.10;;;18.80;;
29814;SDS011;16708;50.426;7.664;2022-12-18T17:19:23;54.10;;;19.70;;
29814;SDS011;16708;50.426;7.664;2022-12-18T17:24:17;55.30;;;18.40;;
29814;SDS011;16708;50.426;7.664;2022-12-18T17:29:10;54.80;;;18.70;;
29814;SDS011;16708;50.426;7.664;2022-12-18T17:34:04;50.00;;;16.50;;
29814;SDS011;16708;50.426;7.664;2022-12-18T17:38:56;63.40;;;20.50;;
29814;SDS011;16708;50.426;7.664;2022-12-18T17:43:51;56.50;;;18.40;;
29814;SDS011;16708;50.426;7.664;2022-12-18T17:48:44;55.80;;;19.40;;
29814;SDS011;16708;50.426;7.664;2022-12-18T17:53:38;56.60;;;19.70;;
29814;SDS011;16708;50.426;7.664;2022-12-18T17:58:32;53.00;;;18.60;;
29814;SDS011;16708;50.426;7.664;2022-12-18T18:03:26;59.80;;;18.40;;
29814;SDS011;16708;50.426;7.664;2022-12-18T18:08:20;58.00;;;20.50;;
29814;SDS011;16708;50.426;7.664;2022-12-18T18:13:14;56.40;;;20.20;;
29814;SDS011;16708;50.426;7.664;2022-12-18T18:18:08;55.40;;;18.80;;
29814;SDS011;16708;50.426;7.664;2022-12-18T18:23:03;58.20;;;20.00;;
29814;SDS011;16708;50.426;7.664;2022-12-18T18:27:57;55.70;;;18.50;;
29814;SDS011;16708;50.426;7.664;2022-12-18T18:32:50;54.10;;;17.10;;
29814;SDS011;16708;50.426;7.664;2022-12-18T18:37:42;57.20;;;18.60;;
29814;SDS011;16708;50.426;7.664;2022-12-18T18:42:37;55.40;;;18.80;;
29814;SDS011;16708;50.426;7.664;2022-12-18T18:47:29;60.60;;;19.80;;
29814;SDS011;16708;50.426;7.664;2022-12-18T18:52:24;58.70;;;19.70;;
29814;SDS011;16708;50.426;7.664;2022-12-18T18:57:18;55.40;;;19.80;;
29814;SDS011;16708;50.426;7.664;2022-12-18T19:02:12;53.30;;;19.60;;
29814;SDS011;16708;50.426;7.664;2022-12-18T19:07:07;51.60;;;19.00;;
29814;SDS011;16708;50.426;7.664;2022-12-18T19:12:01;55.90;;;19.30;;
29814;SDS011;16708;50.426;7.664;2022-12-18T19:16:55;54.10;;;18.60;;
29814;SDS011;16708;50.426;7.664;2022-12-18T19:21:47;61.80;;;20.50;;
29814;SDS011;16708;50.426;7.664;2022-12-18T19:26:40;57.00;;;19.70;;
29814;SDS011;16708;50.426;7.664;2022-12-18T19:31:35;55.20;;;18.80;;
29814;SDS011;16708;50.426;7.664;2022-12-18T19:36:29;57.50;;;18.80;;
29814;SDS011;16708;50.426;7.664;2022-12-18T19:41:23;68.30;;;20.70;;
29814;SDS011;16708;50.426;7.664;2022-12-18T19:46:17;59.10;;;20.30;;
29814;SDS011;16708;50.426;7.664;2022-12-18T19:51:11;58.50;;;19.60;;
29814;SDS011;16708;50.426;7.664;2022-12-18T19:56:04;66.50;;;19.90;;
29814;SDS011;16708;50.426;7.664;2022-12-18T20:00:58;66.00;;;20.20;;
29814;SDS011;16708;50.426;7.664;2022-12-18T20:05:52;54.10;;;18.20;;
29814;SDS011;16708;50.426;7.664;2022-12-18T20:10:46;60.90;;;20.20;;
29814;SDS011;16708;50.426;7.664;2022-12-18T20:15:39;61.50;;;20.20;;
29814;SDS011;16708;50.426;7.664;2022-12-18T20:20:34;57.80;;;19.60;;
29814;SDS011;16708;50.426;7.664;2022-12-18T20:25:28;67.70;;;21.90;;
29814;SDS011;16708;50.426;7.664;2022-12-18T20:30:23;61.40;;;20.00;;
29814;SDS011;16708;50.426;7.664;2022-12-18T20:35:17;69.60;;;21.80;;
29814;SDS011;16708;50.426;7.664;2022-12-18T20:40:11;61.30;;;20.30;;
29814;SDS011;16708;50.426;7.664;2022-12-18T20:45:05;57.00;;;19.90;;
29814;SDS011;16708;50.426;7.664;2022-12-18T20:50:00;72.90;;;22.90;;
29814;SDS011;16708;50.426;7.664;2022-12-18T20:54:54;52.50;;;18.90;;
29814;SDS011;16708;50.426;7.664;2022-12-18T20:59:45;56.90;;;20.20;;
29814;SDS011;16708;50.426;7.664;2022-12-18T21:04:40;50.90;;;18.60;;
29814;SDS011;16708;50.426;7.664;2022-12-18T21:09:34;55.40;;;19.10;;
29814;SDS011;16708;50.426;7.664;2022-12-18T21:14:28;47.90;;;17.20;;
29814;SDS011;16708;50.426;7.664;2022-12-18T21:19:23;52.50;;;18.30;;
29814;SDS011;16708;50.426;7.664;2022-12-18T21:24:14;61.00;;;19.70;;
29814;SDS011;16708;50.426;7.664;2022-12-18T21:29:09;53.80;;;19.50;;
29814;SDS011;16708;50.426;7.664;2022-12-18T21:34:03;50.70;;;18.70;;
29814;SDS011;16708;50.426;7.664;2022-12-18T21:38:57;55.90;;;19.40;;
29814;SDS011;16708;50.426;7.664;2022-12-18T21:43:54;47.90;;;17.30;;
29814;SDS011;16708;50.426;7.664;2022-12-18T21:48:44;60.20;;;19.70;;
29814;SDS011;16708;50.426;7.664;2022-12-18T21:53:38;57.20;;;20.30;;
29814;SDS011;16708;50.426;7.664;2022-12-18T21:58:33;49.30;;;17.80;;
29814;SDS011;16708;50.426;7.664;2022-12-18T22:03:27;55.20;;;18.80;;
29814;SDS011;16708;50.426;7.664;2022-12-18T22:08:21;60.30;;;21.70;;
29814;SDS011;16708;50.426;7.664;2022-12-18T22:13:14;50.00;;;18.40;;
29814;SDS011;16708;50.426;7.664;2022-12-18T22:18:09;55.50;;;19.20;;
29814;SDS011;16708;50.426;7.664;2022-12-18T22:23:03;49.10;;;18.30;;
29814;SDS011;16708;50.426;7.664;2022-12-18T22:27:57;53.20;;;19.10;;
29814;SDS011;16708;50.426;7.664;2022-12-18T22:32:51;52.50;;;17.80;;
29814;SDS011;16708;50.426;7.664;2022-12-18T22:37:46;53.80;;;18.30;;
29814;SDS011;16708;50.426;7.664;2022-12-18T22:42:40;49.60;;;17.30;;
29814;SDS011;16708;50.426;7.664;2022-12-18T22:47:33;46.50;;;17.30;;
29814;SDS011;16708;50.426;7.664;2022-12-18T22:52:27;46.60;;;16.90;;
29814;SDS011;16708;50.426;7.664;2022-12-18T22:57:22;47.10;;;17.50;;
29814;SDS011;16708;50.426;7.664;2022-12-18T23:02:16;52.00;;;17.80;;
29814;SDS011;16708;50.426;7.664;2022-12-18T23:07:10;46.80;;;17.00;;
29814;SDS011;16708;50.426;7.664;2022-12-18T23:12:04;49.20;;;17.20;;
29814;SDS011;16708;50.426;7.664;2022-12-18T23:16:58;50.00;;;17.30;;
29814;SDS011;16708;50.426;7.664;2022-12-18T23:21:52;51.30;;;18.10;;
29814;SDS011;16708;50.426;7.664;2022-12-18T23:26:46;58.70;;;20.10;;
29814;SDS011;16708;50.426;7.664;2022-12-18T23:31:41;49.80;;;17.70;;
29814;SDS011;16708;50.426;7.664;2022-12-18T23:36:35;54.80;;;18.10;;
29814;SDS011;16708;50.426;7.664;2022-12-18T23:41:30;47.50;;;16.70;;
29814;SDS011;16708;50.426;7.664;2022-12-18T23:46:22;52.70;;;18.20;;
29814;SDS011;16708;50.426;7.664;2022-12-18T23:51:16;64.80;;;19.70;;
29814;SDS011;16708;50.426;7.664;2022-12-18T23:56:11;48.80;;;17.50;;
